createdAt,value
2018-07-07T00:00:27.915Z,13.10
2018-07-07T00:02:56.263Z,13.00
2018-07-07T00:05:24.826Z,12.90
2018-07-07T00:07:53.192Z,12.80
2018-07-07T00:10:21.619Z,12.70
2018-07-07T00:12:49.952Z,12.70
2018-07-07T00:15:19.649Z,12.60
2018-07-07T00:17:48.626Z,12.60
2018-07-07T00:20:17.544Z,12.60
2018-07-07T00:22:46.515Z,12.50
2018-07-07T00:25:16.212Z,12.50
2018-07-07T00:27:45.516Z,12.50
2018-07-07T00:30:13.940Z,12.50
2018-07-07T00:32:42.600Z,12.50
2018-07-07T00:35:11.448Z,12.50
2018-07-07T00:37:39.974Z,12.50
2018-07-07T00:40:09.441Z,12.50
2018-07-07T00:42:38.598Z,12.40
2018-07-07T00:45:07.135Z,12.40
2018-07-07T00:47:35.779Z,12.40
2018-07-07T00:50:04.566Z,12.30
2018-07-07T00:52:32.915Z,12.30
2018-07-07T00:55:01.303Z,12.20
2018-07-07T00:57:29.694Z,12.20
2018-07-07T00:59:58.081Z,12.10
2018-07-07T01:02:26.521Z,12.00
2018-07-07T01:04:55.498Z,12.00
2018-07-07T01:07:24.730Z,11.90
2018-07-07T01:09:53.349Z,11.90
2018-07-07T01:12:21.719Z,11.80
2018-07-07T01:14:51.309Z,11.80
2018-07-07T01:17:19.724Z,11.70
2018-07-07T01:19:48.078Z,11.70
2018-07-07T01:22:16.708Z,11.70
2018-07-07T01:24:45.069Z,11.60
2018-07-07T01:27:13.485Z,11.60
2018-07-07T01:29:42.499Z,11.60
2018-07-07T01:32:11.139Z,11.60
2018-07-07T01:34:40.184Z,11.50
2018-07-07T01:37:08.966Z,11.50
2018-07-07T01:39:37.352Z,11.50
2018-07-07T01:42:06.181Z,11.40
2018-07-07T01:44:34.818Z,11.40
2018-07-07T01:47:03.343Z,11.40
2018-07-07T01:49:32.024Z,11.40
2018-07-07T01:52:00.360Z,11.40
2018-07-07T01:54:28.810Z,11.40
2018-07-07T01:56:57.214Z,11.40
2018-07-07T01:59:25.584Z,11.40
2018-07-07T02:01:53.972Z,11.30
2018-07-07T02:04:22.342Z,11.30
2018-07-07T02:06:50.772Z,11.30
2018-07-07T02:09:19.113Z,11.20
2018-07-07T02:11:47.484Z,11.20
2018-07-07T02:14:15.973Z,11.20
2018-07-07T02:16:44.471Z,11.10
2018-07-07T02:19:13.067Z,11.10
2018-07-07T02:21:41.573Z,11.00
2018-07-07T02:24:09.981Z,11.00
2018-07-07T02:26:38.915Z,11.00
2018-07-07T02:29:07.863Z,10.90
2018-07-07T02:31:36.307Z,10.90
2018-07-07T02:34:04.720Z,10.80
2018-07-07T02:36:33.660Z,10.80
2018-07-07T02:39:02.113Z,10.80
2018-07-07T02:41:30.573Z,10.70
2018-07-07T02:43:59.079Z,10.70
2018-07-07T02:46:27.572Z,10.70
2018-07-07T02:48:56.027Z,10.60
2018-07-07T02:51:24.401Z,10.60
2018-07-07T02:53:52.764Z,10.60
2018-07-07T02:56:21.450Z,10.60
2018-07-07T02:58:49.824Z,10.50
2018-07-07T03:01:18.215Z,10.50
2018-07-07T03:03:47.798Z,10.50
2018-07-07T03:06:16.199Z,10.40
2018-07-07T03:08:44.540Z,10.40
2018-07-07T03:11:12.926Z,10.40
2018-07-07T03:13:41.254Z,10.40
2018-07-07T03:16:09.616Z,10.30
2018-07-07T03:18:38.350Z,10.30
2018-07-07T03:21:06.760Z,10.30
2018-07-07T03:23:35.141Z,10.30
2018-07-07T03:26:04.265Z,10.30
2018-07-07T03:28:33.227Z,10.20
2018-07-07T03:33:30.015Z,10.20
2018-07-07T03:35:58.539Z,10.20
2018-07-07T03:38:27.730Z,10.20
2018-07-07T03:40:56.108Z,10.20
2018-07-07T03:43:25.041Z,10.20
2018-07-07T03:45:53.378Z,10.30
2018-07-07T03:48:21.744Z,10.30
2018-07-07T03:50:50.116Z,10.30
2018-07-07T03:53:18.540Z,10.40
2018-07-07T03:55:46.894Z,10.40
2018-07-07T03:58:15.265Z,10.50
2018-07-07T04:00:44.195Z,10.50
2018-07-07T04:03:12.603Z,10.60
2018-07-07T04:05:42.641Z,10.60
2018-07-07T04:08:11.705Z,10.70
2018-07-07T04:10:40.669Z,10.70
2018-07-07T04:13:09.277Z,10.80
2018-07-07T04:15:38.200Z,10.90
2018-07-07T04:18:08.291Z,11.00
2018-07-07T04:20:37.419Z,11.00
2018-07-07T04:23:08.265Z,11.10
2018-07-07T04:25:36.655Z,11.20
2018-07-07T04:28:05.059Z,11.20
2018-07-07T04:33:01.472Z,11.30
2018-07-07T04:35:29.856Z,11.30
2018-07-07T04:37:58.283Z,11.30
2018-07-07T04:40:26.698Z,11.40
2018-07-07T04:42:59.382Z,11.40
2018-07-07T04:45:27.747Z,11.50
2018-07-07T04:47:56.119Z,11.50
2018-07-07T04:50:24.552Z,11.60
2018-07-07T04:52:52.916Z,11.70
2018-07-07T04:55:21.331Z,11.80
2018-07-07T04:57:49.715Z,11.90
2018-07-07T05:00:18.111Z,12.10
2018-07-07T05:02:46.500Z,12.30
2018-07-07T05:05:14.872Z,12.50
2018-07-07T05:07:43.251Z,12.80
2018-07-07T05:10:11.668Z,13.10
2018-07-07T05:12:40.077Z,13.50
2018-07-07T05:15:08.449Z,13.80
2018-07-07T05:17:36.862Z,14.10
2018-07-07T05:20:05.456Z,14.30
2018-07-07T05:22:33.790Z,14.50
2018-07-07T05:25:02.532Z,14.70
2018-07-07T05:27:31.052Z,14.90
2018-07-07T05:29:59.860Z,15.10
2018-07-07T05:32:28.264Z,15.20
2018-07-07T05:34:56.641Z,15.40
2018-07-07T05:37:26.708Z,15.60
2018-07-07T05:39:55.059Z,15.70
2018-07-07T05:42:23.431Z,16.00
2018-07-07T05:44:51.821Z,16.10
2018-07-07T05:47:20.279Z,16.40
2018-07-07T05:49:48.675Z,16.50
2018-07-07T05:52:17.058Z,16.60
2018-07-07T05:54:45.470Z,16.60
2018-07-07T05:57:13.891Z,16.60
2018-07-07T05:59:42.320Z,16.60
2018-07-07T06:02:10.683Z,16.80
2018-07-07T06:07:07.102Z,17.00
2018-07-07T06:09:35.494Z,17.30
2018-07-07T06:12:03.915Z,17.40
2018-07-07T06:14:32.336Z,17.70
2018-07-07T06:17:00.644Z,18.00
2018-07-07T06:21:57.107Z,18.50
2018-07-07T06:24:25.483Z,18.60
2018-07-07T06:26:53.962Z,18.90
2018-07-07T06:29:22.324Z,19.00
2018-07-07T06:31:50.720Z,19.20
2018-07-07T06:34:19.079Z,19.40
2018-07-07T06:36:47.450Z,19.30
2018-07-07T06:39:15.830Z,19.30
2018-07-07T06:41:44.169Z,19.20
2018-07-07T06:44:12.617Z,19.10
2018-07-07T06:46:41.007Z,19.20
2018-07-07T06:49:09.383Z,19.40
2018-07-07T06:51:37.770Z,19.70
2018-07-07T06:54:06.200Z,19.90
2018-07-07T06:56:34.603Z,20.10
2018-07-07T06:59:02.996Z,20.00
2018-07-07T07:01:31.409Z,19.90
2018-07-07T07:03:59.820Z,20.00
2018-07-07T07:06:28.227Z,20.30
2018-07-07T07:08:56.591Z,20.30
2018-07-07T07:11:24.957Z,20.50
2018-07-07T07:13:53.308Z,20.50
2018-07-07T07:16:21.708Z,20.70
2018-07-07T07:18:50.373Z,20.80
2018-07-07T07:21:18.786Z,21.00
2018-07-07T07:23:47.214Z,21.00
2018-07-07T07:26:15.627Z,21.00
2018-07-07T07:28:44.036Z,21.10
2018-07-07T07:31:12.490Z,21.30
2018-07-07T07:33:43.079Z,21.50
2018-07-07T07:36:11.948Z,21.40
2018-07-07T07:38:40.487Z,21.20
2018-07-07T07:41:08.871Z,21.20
2018-07-07T07:43:37.312Z,21.40
2018-07-07T07:46:05.803Z,21.30
2018-07-07T07:48:34.220Z,20.90
2018-07-07T07:51:02.637Z,21.30
2018-07-07T07:53:37.420Z,21.80
2018-07-07T07:56:05.824Z,22.20
2018-07-07T07:58:34.199Z,22.60
2018-07-07T08:01:02.698Z,23.00
2018-07-07T08:03:31.130Z,23.20
2018-07-07T08:06:00.157Z,23.40
2018-07-07T08:08:28.566Z,23.50
2018-07-07T08:10:56.917Z,22.70
2018-07-07T08:13:25.287Z,23.30
2018-07-07T08:15:53.659Z,23.60
2018-07-07T08:18:22.048Z,23.60
2018-07-07T08:20:50.478Z,23.70
2018-07-07T08:23:19.175Z,23.40
2018-07-07T08:25:47.560Z,23.00
2018-07-07T08:28:15.950Z,23.00
2018-07-07T08:30:44.628Z,23.40
2018-07-07T08:33:13.116Z,23.50
2018-07-07T08:35:41.582Z,23.80
2018-07-07T08:38:14.158Z,24.20
2018-07-07T08:40:42.658Z,24.30
2018-07-07T08:43:14.247Z,24.50
2018-07-07T08:45:43.483Z,24.90
2018-07-07T08:48:12.030Z,25.10
2018-07-07T08:50:40.483Z,25.50
2018-07-07T08:53:08.879Z,25.50
2018-07-07T08:55:37.673Z,25.80
2018-07-07T08:58:06.719Z,25.70
2018-07-07T09:00:35.195Z,25.90
2018-07-07T09:03:05.409Z,26.10
2018-07-07T09:05:34.208Z,26.20
2018-07-07T09:08:02.787Z,26.30
2018-07-07T09:10:33.474Z,25.70
2018-07-07T09:13:01.885Z,25.30
2018-07-07T09:15:30.414Z,25.00
2018-07-07T09:17:58.837Z,24.60
2018-07-07T09:20:27.255Z,24.90
2018-07-07T09:22:55.708Z,24.90
2018-07-07T09:27:53.135Z,24.60
2018-07-07T09:30:21.567Z,24.90
2018-07-07T09:32:49.999Z,25.00
2018-07-07T09:35:18.487Z,25.50
2018-07-07T09:37:46.938Z,25.90
2018-07-07T09:40:15.280Z,25.90
2018-07-07T09:42:43.654Z,26.10
2018-07-07T09:45:12.072Z,26.50
2018-07-07T09:47:40.623Z,25.60
2018-07-07T09:50:09.105Z,25.90
2018-07-07T09:52:37.506Z,25.40
2018-07-07T09:55:06.044Z,25.80
2018-07-07T09:57:34.535Z,25.80
2018-07-07T10:00:02.949Z,25.60
2018-07-07T10:02:31.366Z,25.00
2018-07-07T10:04:59.956Z,25.00
2018-07-07T10:07:28.486Z,25.60
2018-07-07T10:09:57.274Z,26.10
2018-07-07T10:12:25.675Z,26.10
2018-07-07T10:14:54.055Z,26.10
2018-07-07T10:17:22.463Z,25.70
2018-07-07T10:19:51.208Z,26.10
2018-07-07T10:22:19.734Z,26.40
2018-07-07T10:24:48.153Z,26.60
2018-07-07T10:27:16.599Z,26.50
2018-07-07T10:32:13.324Z,25.20
2018-07-07T10:34:41.732Z,25.00
2018-07-07T10:37:10.142Z,25.10
2018-07-07T10:39:39.116Z,24.50
2018-07-07T10:42:07.554Z,24.60
2018-07-07T10:44:35.915Z,25.00
2018-07-07T10:47:07.684Z,25.80
2018-07-07T10:49:36.400Z,26.20
2018-07-07T10:52:04.808Z,26.20
2018-07-07T10:54:33.252Z,26.90
2018-07-07T10:57:02.257Z,27.20
2018-07-07T10:59:30.675Z,27.40
2018-07-07T11:01:59.071Z,27.60
2018-07-07T11:04:27.492Z,27.60
2018-07-07T11:06:56.201Z,27.90
2018-07-07T11:09:26.200Z,28.00
2018-07-07T11:11:54.866Z,28.20
2018-07-07T11:14:23.179Z,27.60
2018-07-07T11:16:51.568Z,27.50
2018-07-07T11:19:20.024Z,28.10
2018-07-07T11:21:48.403Z,28.00
2018-07-07T11:24:17.145Z,28.10
2018-07-07T11:26:45.689Z,28.40
2018-07-07T11:29:14.062Z,28.30
2018-07-07T11:31:42.524Z,28.60
2018-07-07T11:34:10.947Z,28.60
2018-07-07T11:36:39.474Z,28.70
2018-07-07T11:39:08.579Z,28.70
2018-07-07T11:41:37.093Z,28.70
2018-07-07T11:44:06.037Z,28.70
2018-07-07T11:46:34.526Z,28.70
2018-07-07T11:49:03.135Z,28.60
2018-07-07T11:51:31.519Z,29.00
2018-07-07T11:53:59.921Z,28.60
2018-07-07T11:56:28.317Z,28.00
2018-07-07T11:58:56.910Z,28.30
2018-07-07T12:01:25.343Z,28.40
2018-07-07T12:03:54.260Z,28.50
2018-07-07T12:06:22.686Z,29.00
2018-07-07T12:08:51.122Z,29.40
2018-07-07T12:11:20.641Z,29.70
2018-07-07T12:13:49.066Z,29.30
2018-07-07T12:16:17.435Z,29.20
2018-07-07T12:18:45.831Z,29.30
2018-07-07T12:21:14.211Z,29.20
2018-07-07T12:23:42.729Z,29.10
2018-07-07T12:26:11.321Z,29.00
2018-07-07T12:28:39.785Z,29.00
2018-07-07T12:31:08.354Z,29.10
2018-07-07T12:33:36.912Z,29.20
2018-07-07T12:36:05.444Z,29.40
2018-07-07T12:38:33.832Z,29.40
2018-07-07T12:41:02.309Z,28.90
2018-07-07T12:43:30.814Z,28.90
2018-07-07T12:45:59.242Z,29.10
2018-07-07T12:48:27.747Z,28.70
2018-07-07T12:50:56.152Z,29.10
2018-07-07T12:53:24.736Z,29.00
2018-07-07T12:55:53.674Z,28.90
2018-07-07T12:58:22.246Z,29.10
2018-07-07T13:00:50.804Z,29.20
2018-07-07T13:03:19.256Z,28.90
2018-07-07T13:05:47.819Z,29.00
2018-07-07T13:08:16.360Z,29.20
2018-07-07T13:10:45.010Z,28.90
2018-07-07T13:13:13.458Z,29.40
2018-07-07T13:15:41.922Z,29.70
2018-07-07T13:18:10.369Z,29.90
2018-07-07T13:20:38.913Z,29.70
2018-07-07T13:23:07.269Z,29.10
2018-07-07T13:25:35.851Z,28.50
2018-07-07T13:28:04.458Z,28.50
2018-07-07T13:30:32.908Z,28.40
2018-07-07T13:33:01.414Z,28.70
2018-07-07T13:35:29.872Z,28.90
2018-07-07T13:37:58.406Z,29.10
2018-07-07T13:40:26.894Z,29.30
2018-07-07T13:42:55.365Z,29.80
2018-07-07T13:45:23.924Z,30.10
2018-07-07T13:47:53.591Z,30.30
2018-07-07T13:50:22.056Z,30.40
2018-07-07T13:52:50.548Z,30.70
2018-07-07T13:55:18.986Z,30.70
2018-07-07T13:57:47.441Z,30.80
2018-07-07T14:00:15.987Z,31.00
2018-07-07T14:02:44.540Z,31.10
2018-07-07T14:05:12.955Z,31.00
2018-07-07T14:07:41.431Z,31.10
2018-07-07T14:10:10.131Z,30.80
2018-07-07T14:12:38.679Z,30.90
2018-07-07T14:15:07.208Z,30.90
2018-07-07T14:17:35.680Z,30.90
2018-07-07T14:20:04.234Z,30.90
2018-07-07T14:22:32.612Z,30.80
2018-07-07T14:25:01.001Z,30.90
2018-07-07T14:27:29.514Z,30.10
2018-07-07T14:29:57.927Z,30.10
2018-07-07T14:32:26.328Z,30.10
2018-07-07T14:34:54.724Z,30.10
2018-07-07T14:37:23.147Z,30.10
2018-07-07T14:40:07.546Z,30.20
2018-07-07T14:42:51.505Z,30.40
2018-07-07T14:45:23.564Z,30.20
2018-07-07T14:47:53.511Z,30.30
2018-07-07T14:50:22.133Z,30.30
2018-07-07T14:52:50.562Z,30.20
2018-07-07T14:55:20.280Z,30.00
2018-07-07T14:57:48.884Z,30.00
2018-07-07T15:00:18.377Z,29.90
2018-07-07T15:02:47.565Z,29.90
2018-07-07T15:05:15.974Z,29.80
2018-07-07T15:07:44.572Z,30.00
2018-07-07T15:10:13.962Z,30.50
2018-07-07T15:12:42.953Z,30.90
2018-07-07T15:15:12.218Z,30.40
2018-07-07T15:17:41.317Z,30.50
2018-07-07T15:20:09.931Z,30.50
2018-07-07T15:22:38.448Z,30.80
2018-07-07T15:25:07.211Z,31.00
2018-07-07T15:27:35.714Z,31.10
2018-07-07T15:30:04.715Z,31.10
2018-07-07T15:32:33.229Z,30.80
2018-07-07T15:35:01.707Z,30.80
2018-07-07T15:37:30.260Z,30.40
2018-07-07T15:39:58.597Z,30.20
2018-07-07T15:42:28.188Z,30.20
2018-07-07T15:47:25.178Z,29.50
2018-07-07T15:49:53.724Z,29.30
2018-07-07T15:52:22.198Z,29.40
2018-07-07T15:54:52.241Z,29.40
2018-07-07T15:57:20.964Z,29.00
2018-07-07T15:59:49.578Z,28.90
2018-07-07T16:02:17.977Z,28.80
2018-07-07T16:04:46.430Z,28.60
2018-07-07T16:07:15.040Z,28.60
2018-07-07T16:09:43.634Z,28.40
2018-07-07T16:12:12.370Z,28.30
2018-07-07T16:14:40.996Z,28.30
2018-07-07T16:17:09.522Z,28.30
2018-07-07T16:19:37.984Z,28.10
2018-07-07T16:22:06.538Z,28.00
2018-07-07T16:24:35.226Z,27.90
2018-07-07T16:27:04.210Z,27.70
2018-07-07T16:29:32.775Z,27.60
2018-07-07T16:32:01.442Z,27.50
2018-07-07T16:34:30.047Z,27.50
2018-07-07T16:36:58.878Z,27.00
2018-07-07T16:39:27.307Z,26.90
2018-07-07T16:41:56.198Z,26.90
2018-07-07T16:44:25.597Z,26.90
2018-07-07T16:46:54.873Z,26.80
2018-07-07T16:49:23.544Z,26.70
2018-07-07T16:51:52.190Z,26.70
2018-07-07T16:54:21.485Z,26.60
2018-07-07T16:56:50.260Z,26.60
2018-07-07T17:01:48.210Z,26.60
2018-07-07T17:04:17.039Z,26.40
2018-07-07T17:09:13.802Z,26.10
2018-07-07T17:11:43.510Z,26.10
2018-07-07T17:14:13.252Z,26.10
2018-07-07T17:16:43.421Z,26.00
2018-07-07T17:19:12.806Z,26.00
2018-07-07T17:21:41.594Z,25.90
2018-07-07T17:24:10.219Z,25.70
2018-07-07T17:26:39.269Z,25.60
2018-07-07T17:29:07.839Z,25.60
2018-07-07T17:31:36.479Z,25.60
2018-07-07T17:34:06.736Z,25.50
2018-07-07T17:36:35.926Z,25.40
2018-07-07T17:39:05.014Z,25.10
2018-07-07T17:41:33.996Z,25.00
2018-07-07T17:44:02.843Z,24.80
2018-07-07T17:46:31.395Z,24.60
2018-07-07T17:48:59.823Z,24.50
2018-07-07T17:51:29.702Z,24.20
2018-07-07T17:53:59.240Z,24.00
2018-07-07T17:56:28.031Z,23.90
2018-07-07T17:58:56.765Z,23.60
2018-07-07T18:01:25.579Z,23.50
2018-07-07T18:03:54.144Z,23.40
2018-07-07T18:06:22.588Z,23.40
2018-07-07T18:11:57.034Z,23.40
2018-07-07T18:14:25.479Z,23.40
2018-07-07T18:16:53.927Z,23.40
2018-07-07T18:19:22.464Z,23.30
2018-07-07T18:21:50.964Z,23.30
2018-07-07T18:24:19.497Z,23.10
2018-07-07T18:26:47.976Z,23.00
2018-07-07T18:29:16.539Z,22.90
2018-07-07T18:31:44.921Z,22.80
2018-07-07T18:34:13.948Z,22.70
2018-07-07T18:36:42.507Z,22.60
2018-07-07T18:39:11.223Z,22.60
2018-07-07T18:41:40.355Z,22.50
2018-07-07T18:44:09.132Z,22.40
2018-07-07T18:46:37.758Z,22.30
2018-07-07T18:49:06.929Z,22.20
2018-07-07T18:51:35.504Z,22.20
2018-07-07T18:54:04.006Z,22.10
2018-07-07T18:56:32.423Z,22.00
2018-07-07T18:59:01.275Z,21.90
2018-07-07T19:01:30.278Z,21.90
2018-07-07T19:03:58.666Z,21.70
2018-07-07T19:06:27.128Z,21.60
2018-07-07T19:08:56.126Z,21.50
2018-07-07T19:11:24.553Z,21.50
2018-07-07T19:13:52.967Z,21.30
2018-07-07T19:16:21.502Z,21.30
2018-07-07T19:18:50.191Z,21.10
2018-07-07T19:21:24.080Z,21.00
2018-07-07T19:23:58.037Z,21.00
2018-07-07T19:26:32.099Z,20.90
2018-07-07T19:31:28.802Z,20.60
2018-07-07T19:34:02.527Z,20.40
2018-07-07T19:36:36.679Z,20.30
2018-07-07T19:39:05.965Z,20.20
2018-07-07T19:41:34.559Z,20.10
2018-07-07T19:44:03.440Z,20.00
2018-07-07T19:46:31.884Z,19.90
2018-07-07T19:49:00.688Z,19.80
2018-07-07T19:51:29.297Z,19.70
2018-07-07T19:53:57.863Z,19.60
2018-07-07T19:56:26.322Z,19.50
2018-07-07T19:58:54.941Z,19.40
2018-07-07T20:01:24.040Z,19.30
2018-07-07T20:03:52.472Z,19.20
2018-07-07T20:06:21.098Z,19.10
2018-07-07T20:08:50.215Z,19.00
2018-07-07T20:11:18.683Z,18.90
2018-07-07T20:13:47.225Z,18.80
2018-07-07T20:16:20.429Z,18.70
2018-07-07T20:19:15.649Z,18.60
2018-07-07T20:21:50.048Z,18.60
2018-07-07T20:24:23.165Z,18.50
2018-07-07T20:26:56.810Z,18.40
2018-07-07T20:29:25.315Z,18.30
2018-07-07T20:31:55.039Z,18.20
2018-07-07T20:34:24.740Z,18.10
2018-07-07T20:36:53.627Z,18.00
2018-07-07T20:39:22.235Z,17.90
2018-07-07T20:41:51.193Z,17.90
2018-07-07T20:44:20.048Z,17.80
2018-07-07T20:46:48.964Z,17.70
2018-07-07T20:49:17.521Z,17.60
2018-07-07T20:51:46.014Z,17.50
2018-07-07T20:54:14.707Z,17.50
2018-07-07T20:56:43.142Z,17.40
2018-07-07T20:59:11.576Z,17.30
2018-07-07T21:01:40.126Z,17.20
2018-07-07T21:04:08.598Z,17.20
2018-07-07T21:06:37.061Z,17.10
2018-07-07T21:09:06.200Z,17.00
2018-07-07T21:11:34.781Z,16.90
2018-07-07T21:14:03.252Z,16.90
2018-07-07T21:16:31.745Z,16.80
2018-07-07T21:19:00.304Z,16.80
2018-07-07T21:21:28.836Z,16.70
2018-07-07T21:23:57.318Z,16.60
2018-07-07T21:26:25.701Z,16.60
2018-07-07T21:28:54.139Z,16.50
2018-07-07T21:31:22.687Z,16.40
2018-07-07T21:33:51.109Z,16.40
2018-07-07T21:36:19.588Z,16.30
2018-07-07T21:38:48.083Z,16.20
2018-07-07T21:41:16.491Z,16.20
2018-07-07T21:43:44.960Z,16.10
2018-07-07T21:46:13.353Z,16.10
2018-07-07T21:48:41.722Z,16.00
2018-07-07T21:51:10.100Z,15.90
2018-07-07T21:53:38.551Z,15.90
2018-07-07T21:56:07.258Z,15.80
2018-07-07T21:58:35.661Z,15.80
2018-07-07T22:01:13.658Z,15.70
2018-07-07T22:03:47.615Z,15.60
2018-07-07T22:06:21.446Z,15.60
2018-07-07T22:08:49.980Z,15.50
2018-07-07T22:11:18.454Z,15.40
2018-07-07T22:13:46.900Z,15.40
2018-07-07T22:16:15.314Z,15.40
2018-07-07T22:18:43.769Z,15.30
2018-07-07T22:21:23.405Z,15.30
2018-07-07T22:23:51.889Z,15.20
2018-07-07T22:26:20.369Z,15.10
2018-07-07T22:28:48.831Z,15.10
2018-07-07T22:31:17.256Z,15.00
2018-07-07T22:33:45.801Z,15.00
2018-07-07T22:36:19.405Z,14.90
2018-07-07T22:38:52.994Z,14.90
2018-07-07T22:41:26.505Z,14.90
2018-07-07T22:43:54.860Z,14.80
2018-07-07T22:46:23.240Z,14.70
2018-07-07T22:48:51.645Z,14.70
2018-07-07T22:51:19.992Z,14.60
2018-07-07T22:53:48.415Z,14.50
2018-07-07T22:58:44.957Z,14.40
2018-07-07T23:01:13.377Z,14.40
2018-07-07T23:03:41.847Z,14.30
2018-07-07T23:06:10.259Z,14.30
2018-07-07T23:08:38.663Z,14.20
2018-07-07T23:11:07.089Z,14.20
2018-07-07T23:13:35.533Z,14.10
2018-07-07T23:16:04.008Z,14.00
2018-07-07T23:18:32.528Z,14.00
2018-07-07T23:21:00.934Z,13.90
2018-07-07T23:23:29.361Z,13.80
2018-07-07T23:25:57.767Z,13.70
2018-07-07T23:28:26.209Z,13.70
2018-07-07T23:30:54.668Z,13.60
2018-07-07T23:33:23.164Z,13.60
2018-07-07T23:35:51.657Z,13.50
2018-07-07T23:38:20.075Z,13.50
2018-07-07T23:40:48.549Z,13.40
2018-07-07T23:43:16.956Z,13.40
2018-07-07T23:45:45.364Z,13.30
2018-07-07T23:48:13.779Z,13.30
2018-07-07T23:50:42.205Z,13.20
2018-07-07T23:53:10.631Z,13.20
2018-07-07T23:55:39.182Z,13.10
2018-07-07T23:58:07.641Z,13.10
